createdAt,value
2023-01-17T00:02:11.085Z,18.23
2023-01-17T00:04:56.373Z,20.75
2023-01-17T00:07:43.217Z,18.35
2023-01-17T00:10:16.726Z,21.67
2023-01-17T00:12:55.422Z,20.17
2023-01-17T00:15:26.025Z,16.23
2023-01-17T00:17:53.907Z,18.92
2023-01-17T00:20:50.259Z,18.42
2023-01-17T00:23:40.245Z,18.08
2023-01-17T00:26:16.734Z,20.42
2023-01-17T00:28:44.693Z,19.48
2023-01-17T00:31:14.342Z,17.88
2023-01-17T00:33:41.142Z,19.52
2023-01-17T00:36:08.681Z,19.17
2023-01-17T00:38:37.512Z,19.65
2023-01-17T00:41:13.851Z,22.80
2023-01-17T00:43:59.341Z,21.10
2023-01-17T00:46:45.263Z,16.77
2023-01-17T00:49:31.057Z,18.95
2023-01-17T00:52:16.553Z,16.17
2023-01-17T00:55:02.087Z,17.92
2023-01-17T00:57:47.786Z,16.45
2023-01-17T01:00:33.810Z,16.63
2023-01-17T01:03:19.330Z,14.27
2023-01-17T01:06:04.806Z,16.73
2023-01-17T01:08:51.025Z,14.80
2023-01-17T01:11:39.370Z,14.05
2023-01-17T01:14:26.196Z,15.07
2023-01-17T01:17:11.520Z,17.58
2023-01-17T01:19:56.950Z,14.45
2023-01-17T01:22:42.585Z,12.07
2023-01-17T01:25:28.211Z,13.70
2023-01-17T01:28:25.588Z,15.48
2023-01-17T01:31:11.191Z,11.90
2023-01-17T01:33:38.178Z,11.13
2023-01-17T01:36:08.345Z,12.05
2023-01-17T01:38:35.272Z,13.40
2023-01-17T01:41:02.589Z,11.85
2023-01-17T01:43:58.616Z,10.95
2023-01-17T01:46:36.449Z,10.98
2023-01-17T01:49:08.552Z,11.48
2023-01-17T01:51:51.111Z,10.25
2023-01-17T01:54:25.633Z,10.00
2023-01-17T01:56:54.767Z,16.38
2023-01-17T01:59:23.051Z,11.75
2023-01-17T02:01:53.107Z,12.30
2023-01-17T02:04:21.092Z,11.05
2023-01-17T02:06:51.922Z,11.00
2023-01-17T02:09:20.184Z,12.40
2023-01-17T02:11:48.840Z,11.52
2023-01-17T02:14:17.245Z,12.02
2023-01-17T02:16:53.049Z,10.98
2023-01-17T02:19:57.520Z,9.13
2023-01-17T02:22:24.270Z,12.15
2023-01-17T02:25:18.992Z,11.32
2023-01-17T02:28:26.957Z,7.88
2023-01-17T02:31:04.500Z,10.65
2023-01-17T02:34:10.440Z,8.38
2023-01-17T02:36:47.424Z,9.25
2023-01-17T02:39:21.728Z,6.90
2023-01-17T02:42:00.894Z,7.57
2023-01-17T02:44:27.798Z,12.95
2023-01-17T02:46:57.196Z,10.52
2023-01-17T02:49:30.490Z,12.50
2023-01-17T02:52:16.587Z,11.00
2023-01-17T02:54:43.360Z,11.68
2023-01-17T02:57:10.171Z,11.93
2023-01-17T03:00:00.387Z,13.90
2023-01-17T03:02:51.769Z,14.82
2023-01-17T03:06:07.856Z,14.52
2023-01-17T03:08:35.123Z,15.13
2023-01-17T03:11:02.025Z,14.30
2023-01-17T03:13:28.977Z,15.20
2023-01-17T03:15:55.788Z,12.82
2023-01-17T03:18:22.904Z,12.85
2023-01-17T03:20:49.731Z,11.68
2023-01-17T03:23:16.570Z,13.32
2023-01-17T03:25:43.387Z,12.73
2023-01-17T03:28:10.230Z,14.82
2023-01-17T03:30:37.062Z,13.68
2023-01-17T03:33:04.110Z,10.82
2023-01-17T03:35:30.946Z,12.52
2023-01-17T03:37:57.801Z,11.43
2023-01-17T03:40:24.624Z,12.70
2023-01-17T03:42:51.489Z,9.05
2023-01-17T03:45:18.538Z,11.45
2023-01-17T03:47:45.604Z,13.35
2023-01-17T03:50:13.593Z,13.52
2023-01-17T03:52:40.462Z,11.15
2023-01-17T03:55:07.953Z,13.95
2023-01-17T03:57:34.803Z,13.70
2023-01-17T04:00:01.661Z,10.43
2023-01-17T04:02:28.595Z,12.32
2023-01-17T04:04:55.521Z,7.82
2023-01-17T04:07:23.013Z,8.43
2023-01-17T04:09:50.114Z,10.18
2023-01-17T04:12:17.083Z,9.73
2023-01-17T04:14:43.942Z,8.02
2023-01-17T04:17:13.129Z,8.88
2023-01-17T04:19:41.204Z,7.95
2023-01-17T04:22:08.493Z,12.25
2023-01-17T04:24:35.466Z,9.30
2023-01-17T04:27:04.270Z,9.80
2023-01-17T04:29:31.243Z,7.43
2023-01-17T04:31:58.178Z,8.60
2023-01-17T04:34:25.052Z,7.15
2023-01-17T04:36:51.911Z,9.00
2023-01-17T04:39:18.748Z,9.10
2023-01-17T04:41:45.568Z,10.85
2023-01-17T04:44:12.379Z,6.95
2023-01-17T04:46:39.214Z,9.98
2023-01-17T04:49:06.086Z,10.35
2023-01-17T04:51:33.048Z,7.60
2023-01-17T04:53:59.985Z,8.38
2023-01-17T04:56:26.869Z,9.43
2023-01-17T04:58:53.711Z,12.43
2023-01-17T05:01:20.705Z,10.48
2023-01-17T05:03:48.015Z,9.50
2023-01-17T05:06:15.204Z,11.52
2023-01-17T05:08:42.095Z,11.15
2023-01-17T05:11:09.010Z,12.52
2023-01-17T05:13:35.913Z,10.40
2023-01-17T05:16:02.812Z,8.52
2023-01-17T05:18:29.736Z,9.60
2023-01-17T05:21:04.364Z,9.07
2023-01-17T05:23:31.240Z,9.23
2023-01-17T05:25:58.080Z,8.50
2023-01-17T05:28:25.619Z,7.85
2023-01-17T05:30:52.554Z,8.85
2023-01-17T05:33:19.393Z,9.88
2023-01-17T05:35:46.302Z,8.20
2023-01-17T05:38:13.128Z,10.27
2023-01-17T05:40:39.960Z,11.55
2023-01-17T05:43:06.868Z,10.30
2023-01-17T05:45:34.245Z,8.85
2023-01-17T05:48:02.128Z,9.18
2023-01-17T05:50:34.933Z,7.97
2023-01-17T05:53:10.608Z,7.47
2023-01-17T05:55:39.090Z,6.78
2023-01-17T05:58:08.739Z,9.65
2023-01-17T06:00:37.357Z,4.35
2023-01-17T06:03:04.629Z,7.82
2023-01-17T06:05:31.884Z,7.07
2023-01-17T06:07:59.148Z,8.45
2023-01-17T06:10:26.828Z,7.40
2023-01-17T06:13:08.763Z,7.75
2023-01-17T06:15:37.325Z,7.32
2023-01-17T06:18:12.397Z,8.18
2023-01-17T06:20:40.232Z,7.15
2023-01-17T06:23:10.106Z,8.65
2023-01-17T06:25:45.344Z,10.00
2023-01-17T06:28:14.455Z,9.13
2023-01-17T06:30:42.460Z,10.82
2023-01-17T06:33:09.662Z,9.65
2023-01-17T06:35:40.975Z,10.85
2023-01-17T06:38:10.003Z,6.95
2023-01-17T06:40:36.980Z,6.68
2023-01-17T06:43:05.581Z,10.73
2023-01-17T06:45:34.656Z,10.63
2023-01-17T06:48:04.209Z,10.35
2023-01-17T06:50:31.762Z,8.77
2023-01-17T06:53:01.053Z,8.98
2023-01-17T06:55:29.288Z,9.95
2023-01-17T06:57:57.344Z,11.45
2023-01-17T07:00:24.461Z,8.23
2023-01-17T07:02:51.831Z,5.63
2023-01-17T07:05:19.031Z,7.32
2023-01-17T07:07:46.372Z,6.95
2023-01-17T07:10:15.245Z,8.48
2023-01-17T07:12:42.395Z,9.55
2023-01-17T07:15:09.986Z,20.65
2023-01-17T07:17:36.970Z,5.78
2023-01-17T07:20:04.240Z,8.82
2023-01-17T07:22:31.152Z,8.15
2023-01-17T07:25:00.750Z,9.27
2023-01-17T07:27:30.529Z,7.90
2023-01-17T07:29:57.982Z,8.13
2023-01-17T07:32:26.741Z,7.43
2023-01-17T07:34:54.306Z,4.90
2023-01-17T07:37:21.450Z,10.38
2023-01-17T07:39:48.359Z,8.25
2023-01-17T07:42:15.460Z,7.20
2023-01-17T07:44:44.126Z,8.15
2023-01-17T07:47:11.457Z,5.25
2023-01-17T07:49:38.373Z,8.80
2023-01-17T07:52:07.541Z,7.10
2023-01-17T07:54:34.765Z,10.25
2023-01-17T07:57:02.292Z,10.50
2023-01-17T07:59:29.320Z,8.50
2023-01-17T08:01:56.388Z,9.13
2023-01-17T08:04:26.465Z,8.32
2023-01-17T08:06:55.047Z,7.95
2023-01-17T08:09:22.127Z,8.05
2023-01-17T08:11:49.003Z,5.57
2023-01-17T08:14:15.898Z,10.07
2023-01-17T08:16:42.849Z,7.75
2023-01-17T08:19:10.399Z,10.18
2023-01-17T08:21:37.582Z,7.47
2023-01-17T08:24:04.784Z,9.68
2023-01-17T08:26:31.748Z,11.23
2023-01-17T08:29:03.384Z,11.60
2023-01-17T08:33:58.131Z,12.68
2023-01-17T08:36:25.924Z,12.10
2023-01-17T08:38:53.579Z,8.85
2023-01-17T08:41:21.471Z,9.52
2023-01-17T08:43:49.114Z,12.68
2023-01-17T08:46:16.878Z,10.10
2023-01-17T08:48:44.446Z,11.63
2023-01-17T08:51:11.967Z,11.38
2023-01-17T08:53:38.899Z,11.55
2023-01-17T08:56:06.138Z,10.77
2023-01-17T08:58:35.016Z,9.30
2023-01-17T09:01:06.566Z,8.77
2023-01-17T09:06:08.628Z,7.47
2023-01-17T09:08:36.126Z,7.82
2023-01-17T09:11:11.532Z,11.57
2023-01-17T09:13:40.433Z,7.78
2023-01-17T09:16:08.588Z,12.25
2023-01-17T09:18:36.766Z,12.80
2023-01-17T09:21:14.382Z,10.70
2023-01-17T09:23:41.722Z,11.93
2023-01-17T09:26:17.823Z,9.70
2023-01-17T09:28:44.682Z,11.13
2023-01-17T09:31:11.685Z,12.07
2023-01-17T09:33:41.091Z,14.18
2023-01-17T09:36:08.188Z,9.18
2023-01-17T09:38:35.053Z,11.55
2023-01-17T09:41:03.416Z,12.02
2023-01-17T09:43:41.528Z,12.23
2023-01-17T09:46:22.693Z,13.52
2023-01-17T09:49:00.807Z,7.53
2023-01-17T09:51:27.859Z,10.13
2023-01-17T09:53:55.347Z,8.27
2023-01-17T09:56:40.132Z,9.60
2023-01-17T09:59:33.123Z,6.32
2023-01-17T10:02:26.310Z,9.63
2023-01-17T10:05:07.393Z,10.43
2023-01-17T10:08:00.629Z,8.07
2023-01-17T10:10:30.865Z,10.73
2023-01-17T10:13:04.961Z,10.27
2023-01-17T10:16:01.443Z,8.75
2023-01-17T10:18:53.059Z,9.27
2023-01-17T10:21:42.378Z,11.18
2023-01-17T10:24:36.733Z,9.98
2023-01-17T10:27:13.022Z,8.95
2023-01-17T10:29:41.248Z,8.38
2023-01-17T10:32:12.716Z,10.55
2023-01-17T10:34:51.747Z,11.45
2023-01-17T10:37:24.418Z,8.10
2023-01-17T10:39:54.046Z,6.30
2023-01-17T10:42:26.389Z,10.98
2023-01-17T10:45:20.845Z,11.27
2023-01-17T10:47:53.555Z,11.40
2023-01-17T10:50:24.160Z,11.75
2023-01-17T10:53:07.481Z,12.55
2023-01-17T10:55:48.866Z,11.55
2023-01-17T10:58:15.796Z,8.90
2023-01-17T11:00:44.196Z,11.85
2023-01-17T11:03:13.752Z,11.85
2023-01-17T11:05:42.832Z,16.10
2023-01-17T11:08:14.520Z,9.07
2023-01-17T11:13:35.427Z,9.90
2023-01-17T11:16:10.777Z,11.98
2023-01-17T11:18:41.049Z,10.73
2023-01-17T11:21:16.581Z,8.93
2023-01-17T11:23:46.842Z,12.00
2023-01-17T11:26:30.605Z,13.75
2023-01-17T11:29:16.240Z,12.35
2023-01-17T11:31:43.137Z,16.58
2023-01-17T11:34:25.030Z,15.18
2023-01-17T11:37:17.246Z,11.82
2023-01-17T11:39:48.043Z,13.52
2023-01-17T11:42:36.632Z,15.13
2023-01-17T11:45:29.786Z,16.05
2023-01-17T11:48:15.175Z,14.32
2023-01-17T11:50:53.676Z,16.27
2023-01-17T11:53:24.910Z,14.45
2023-01-17T11:56:08.814Z,14.77
2023-01-17T11:58:39.937Z,14.85
2023-01-17T12:01:18.445Z,14.02
2023-01-17T12:04:11.045Z,11.73
2023-01-17T12:06:58.118Z,10.30
2023-01-17T12:09:48.217Z,14.23
2023-01-17T12:13:03.761Z,12.05
2023-01-17T12:15:45.338Z,11.88
2023-01-17T12:18:15.307Z,13.60
2023-01-17T12:21:00.628Z,14.20
2023-01-17T12:23:41.939Z,13.60
2023-01-17T12:26:21.875Z,14.32
2023-01-17T12:28:56.864Z,18.73
2023-01-17T12:31:32.598Z,14.60
2023-01-17T12:34:35.454Z,18.45
2023-01-17T12:37:23.537Z,13.77
2023-01-17T12:40:13.574Z,13.30
2023-01-17T12:42:56.605Z,13.95
2023-01-17T12:45:38.440Z,14.27
2023-01-17T12:50:51.329Z,13.10
2023-01-17T12:53:24.196Z,13.90
2023-01-17T12:56:00.363Z,19.40
2023-01-17T12:58:30.853Z,16.35
2023-01-17T13:01:05.460Z,14.77
2023-01-17T13:04:01.799Z,17.25
2023-01-17T13:06:36.025Z,18.80
2023-01-17T13:09:04.951Z,12.77
2023-01-17T13:11:43.828Z,15.70
2023-01-17T13:14:10.911Z,16.00
2023-01-17T13:17:03.771Z,17.00
2023-01-17T13:20:08.032Z,18.08
2023-01-17T13:22:37.892Z,17.60
2023-01-17T13:25:42.360Z,17.88
2023-01-17T13:28:40.036Z,20.17
2023-01-17T13:31:25.605Z,16.48
2023-01-17T13:34:04.975Z,20.63
2023-01-17T13:37:08.915Z,23.27
2023-01-17T13:39:57.570Z,21.65
2023-01-17T13:42:50.699Z,22.25
2023-01-17T13:45:25.982Z,17.55
2023-01-17T13:47:54.075Z,19.63
2023-01-17T13:50:57.980Z,16.27
2023-01-17T13:53:39.755Z,19.30
2023-01-17T13:58:50.186Z,18.45
2023-01-17T14:01:23.268Z,18.17
2023-01-17T14:03:50.359Z,18.65
2023-01-17T14:06:36.304Z,22.08
2023-01-17T14:09:21.989Z,28.52
2023-01-17T14:12:03.828Z,22.08
2023-01-17T14:17:25.625Z,12.65
2023-01-17T14:19:53.718Z,23.25
2023-01-17T14:22:20.555Z,21.52
2023-01-17T14:25:17.995Z,23.17
2023-01-17T14:27:51.532Z,23.38
2023-01-17T14:30:18.673Z,21.02
2023-01-17T14:33:01.122Z,20.52
2023-01-17T14:35:31.085Z,23.67
2023-01-17T14:37:58.202Z,28.92
2023-01-17T14:40:29.580Z,23.70
2023-01-17T14:43:05.634Z,22.92
2023-01-17T14:45:35.086Z,28.83
2023-01-17T14:48:05.722Z,22.48
2023-01-17T14:50:39.346Z,23.35
2023-01-17T14:53:29.885Z,24.77
2023-01-17T14:56:01.976Z,25.35
2023-01-17T14:58:28.868Z,23.05
2023-01-17T15:01:01.513Z,22.90
2023-01-17T15:03:30.653Z,23.27
2023-01-17T15:06:09.871Z,23.40
2023-01-17T15:08:36.844Z,26.02
2023-01-17T15:11:07.613Z,24.10
2023-01-17T15:13:44.664Z,24.67
2023-01-17T15:16:27.185Z,25.60
2023-01-17T15:18:55.632Z,22.40
2023-01-17T15:21:26.422Z,23.80
2023-01-17T15:23:56.305Z,25.43
2023-01-17T15:26:26.236Z,25.35
2023-01-17T15:29:00.181Z,21.30
2023-01-17T15:31:41.333Z,18.40
2023-01-17T15:34:13.967Z,28.27
2023-01-17T15:36:40.916Z,25.60
2023-01-17T15:39:20.348Z,20.50
2023-01-17T15:41:49.799Z,20.98
2023-01-17T15:44:47.091Z,21.80
2023-01-17T15:47:33.395Z,25.83
2023-01-17T15:50:02.479Z,29.23
2023-01-17T15:52:29.475Z,23.25
2023-01-17T15:55:14.832Z,25.13
2023-01-17T15:57:47.784Z,28.25
2023-01-17T16:00:19.179Z,26.52
2023-01-17T16:02:57.162Z,25.70
2023-01-17T16:05:24.420Z,28.00
2023-01-17T16:07:57.164Z,25.83
2023-01-17T16:10:28.224Z,23.42
2023-01-17T16:12:56.325Z,24.45
2023-01-17T16:15:24.384Z,25.40
2023-01-17T16:17:54.308Z,27.38
2023-01-17T16:20:38.091Z,23.25
2023-01-17T16:23:04.996Z,27.20
2023-01-17T16:25:34.475Z,30.23
2023-01-17T16:28:03.400Z,27.25
2023-01-17T16:30:30.640Z,28.02
2023-01-17T16:32:57.927Z,36.95
2023-01-17T16:35:28.240Z,34.90
2023-01-17T16:38:00.433Z,37.35
2023-01-17T16:40:30.901Z,33.65
2023-01-17T16:42:58.894Z,34.70
2023-01-17T16:45:26.120Z,37.67
2023-01-17T16:47:54.347Z,37.35
2023-01-17T16:50:24.489Z,39.05
2023-01-17T16:52:56.944Z,38.45
2023-01-17T16:55:24.993Z,36.55
2023-01-17T16:57:54.171Z,33.00
2023-01-17T17:00:22.718Z,37.10
2023-01-17T17:02:51.023Z,48.47
2023-01-17T17:05:18.234Z,35.13
2023-01-17T17:07:46.311Z,39.30
2023-01-17T17:10:19.459Z,42.30
2023-01-17T17:12:47.047Z,39.88
2023-01-17T17:15:14.184Z,39.42
2023-01-17T17:17:43.134Z,39.45
2023-01-17T17:20:13.225Z,42.60
2023-01-17T17:22:43.042Z,39.63
2023-01-17T17:25:11.780Z,40.13
2023-01-17T17:27:38.732Z,37.75
2023-01-17T17:30:06.344Z,46.38
2023-01-17T17:32:33.266Z,53.85
2023-01-17T17:35:00.437Z,41.70
2023-01-17T17:37:30.202Z,42.10
2023-01-17T17:39:57.509Z,39.33
2023-01-17T17:42:24.509Z,42.75
2023-01-17T17:44:51.542Z,45.58
2023-01-17T17:47:18.470Z,40.28
2023-01-17T17:49:45.319Z,43.70
2023-01-17T17:52:12.224Z,46.03
2023-01-17T17:54:39.101Z,42.92
2023-01-17T17:57:06.583Z,46.22
2023-01-17T17:59:33.786Z,41.90
2023-01-17T18:02:00.756Z,45.78
2023-01-17T18:04:27.846Z,47.30
2023-01-17T18:06:58.519Z,51.00
2023-01-17T18:09:25.525Z,50.80
2023-01-17T18:11:52.508Z,45.35
2023-01-17T18:14:22.144Z,46.83
2023-01-17T18:16:49.008Z,43.05
2023-01-17T18:19:18.858Z,49.92
2023-01-17T18:21:45.850Z,46.13
2023-01-17T18:24:15.546Z,39.33
2023-01-17T18:26:43.948Z,41.72
2023-01-17T18:29:15.712Z,39.03
2023-01-17T18:31:44.204Z,42.42
2023-01-17T18:34:16.786Z,43.17
2023-01-17T18:36:44.085Z,43.22
2023-01-17T18:39:13.502Z,42.95
2023-01-17T18:41:40.498Z,51.28
2023-01-17T18:44:08.079Z,42.10
2023-01-17T18:46:37.329Z,40.10
2023-01-17T18:49:04.986Z,40.65
2023-01-17T18:51:34.601Z,41.15
2023-01-17T18:54:05.907Z,55.58
2023-01-17T18:56:37.008Z,44.40
2023-01-17T18:59:06.880Z,49.20
2023-01-17T19:01:36.224Z,44.85
2023-01-17T19:04:04.706Z,46.25
2023-01-17T19:06:34.425Z,44.15
2023-01-17T19:09:02.724Z,42.13
2023-01-17T19:11:29.878Z,38.53
2023-01-17T19:13:57.167Z,40.50
2023-01-17T19:16:29.861Z,41.17
2023-01-17T19:18:58.399Z,43.58
2023-01-17T19:21:27.593Z,44.47
2023-01-17T19:23:55.550Z,42.20
2023-01-17T19:26:25.039Z,39.88
2023-01-17T19:28:52.138Z,44.97
2023-01-17T19:31:22.052Z,36.78
2023-01-17T19:33:51.685Z,43.17
2023-01-17T19:36:23.425Z,43.08
2023-01-17T19:39:03.528Z,42.95
2023-01-17T19:41:31.464Z,39.10
2023-01-17T19:44:00.659Z,46.00
2023-01-17T19:46:28.184Z,42.03
2023-01-17T19:48:56.220Z,50.20
2023-01-17T19:51:24.753Z,48.15
2023-01-17T19:53:51.594Z,43.05
2023-01-17T19:56:21.252Z,39.90
2023-01-17T19:58:48.487Z,47.67
2023-01-17T20:01:18.133Z,48.45
2023-01-17T20:03:46.486Z,38.10
2023-01-17T20:06:16.993Z,43.15
2023-01-17T20:08:45.274Z,42.45
2023-01-17T20:11:15.354Z,40.38
2023-01-17T20:13:42.458Z,41.63
2023-01-17T20:16:11.706Z,38.80
2023-01-17T20:18:38.707Z,47.70
2023-01-17T20:21:13.067Z,43.67
2023-01-17T20:23:43.075Z,47.55
2023-01-17T20:26:11.433Z,41.42
2023-01-17T20:28:40.635Z,38.67
2023-01-17T20:31:19.415Z,40.40
2023-01-17T20:33:47.154Z,38.88
2023-01-17T20:36:16.260Z,36.70
2023-01-17T20:38:44.121Z,42.25
2023-01-17T20:41:15.535Z,39.58
2023-01-17T20:43:43.912Z,36.55
2023-01-17T20:46:11.326Z,36.20
2023-01-17T20:48:47.410Z,38.70
2023-01-17T20:51:15.236Z,34.13
2023-01-17T20:53:43.512Z,36.08
2023-01-17T20:56:13.096Z,37.75
2023-01-17T20:58:40.443Z,34.03
2023-01-17T21:01:09.977Z,35.30
2023-01-17T21:03:38.094Z,35.60
2023-01-17T21:06:10.359Z,31.33
2023-01-17T21:08:42.001Z,31.83
2023-01-17T21:13:36.448Z,33.05
2023-01-17T21:16:03.897Z,31.80
2023-01-17T21:18:32.001Z,30.35
2023-01-17T21:21:14.190Z,33.28
2023-01-17T21:23:42.744Z,30.90
2023-01-17T21:26:12.871Z,29.30
2023-01-17T21:28:41.302Z,32.03
2023-01-17T21:31:18.181Z,30.63
2023-01-17T21:33:45.402Z,28.73
2023-01-17T21:36:12.452Z,29.58
2023-01-17T21:38:39.289Z,29.05
2023-01-17T21:41:06.490Z,28.58
2023-01-17T21:43:33.335Z,32.60
2023-01-17T21:46:05.603Z,32.03
2023-01-17T21:48:32.570Z,29.42
2023-01-17T21:51:07.177Z,30.60
2023-01-17T21:53:39.201Z,30.98
2023-01-17T21:56:27.161Z,27.85
2023-01-17T21:58:56.900Z,27.45
2023-01-17T22:01:29.529Z,26.98
2023-01-17T22:03:57.708Z,31.42
2023-01-17T22:06:27.557Z,29.02
2023-01-17T22:08:54.510Z,29.13
2023-01-17T22:11:24.378Z,29.05
2023-01-17T22:13:51.231Z,30.30
2023-01-17T22:16:21.109Z,29.05
2023-01-17T22:18:47.967Z,28.08
2023-01-17T22:21:19.979Z,30.38
2023-01-17T22:23:52.502Z,33.38
2023-01-17T22:26:25.085Z,31.17
2023-01-17T22:28:53.923Z,27.17
2023-01-17T22:31:23.345Z,27.95
2023-01-17T22:33:55.196Z,29.90
2023-01-17T22:36:22.648Z,34.00
2023-01-17T22:38:49.752Z,29.20
2023-01-17T22:41:20.127Z,30.35
2023-01-17T22:43:56.017Z,30.98
2023-01-17T22:46:27.180Z,32.92
2023-01-17T22:48:55.435Z,28.50
2023-01-17T22:51:23.754Z,28.88
2023-01-17T22:53:56.009Z,29.55
2023-01-17T22:56:28.765Z,32.95
2023-01-17T22:58:55.656Z,28.80
2023-01-17T23:01:25.567Z,25.30
2023-01-17T23:03:57.717Z,28.35
2023-01-17T23:06:30.459Z,23.70
2023-01-17T23:09:00.592Z,26.67
2023-01-17T23:11:45.021Z,26.77
2023-01-17T23:14:23.286Z,29.70
2023-01-17T23:17:16.982Z,27.77
2023-01-17T23:19:47.964Z,27.98
2023-01-17T23:22:20.408Z,28.60
2023-01-17T23:24:50.354Z,29.55
2023-01-17T23:27:51.634Z,26.20
2023-01-17T23:30:21.672Z,28.02
2023-01-17T23:32:53.755Z,28.92
2023-01-17T23:35:23.723Z,28.88
2023-01-17T23:38:09.017Z,27.85
2023-01-17T23:40:37.455Z,30.27
2023-01-17T23:43:22.892Z,28.58
2023-01-17T23:45:54.743Z,29.55
2023-01-17T23:48:25.425Z,28.73
2023-01-17T23:51:00.413Z,29.35
2023-01-17T23:53:27.455Z,29.67
2023-01-17T23:55:56.526Z,28.23
2023-01-17T23:58:25.765Z,30.38
